Time;durP1;ratioP1;P1;durP2;ratioP2;P2;SDS_P1;SDS_P2;PMS_P1;PMS_P2;Temp;Humidity;BMP_temperature;BMP_pressure;BME280_temperature;BME280_humidity;BME280_pressure;Samples;Min_cycle;Max_cycle;Signal;HPM_P1;HPM_P2
2021/01/02 00:02:34;;;;;;;37.98;17.67;;;;;;;7.35;76.64;100681.16;1685646;85;21940;-52
2021/01/02 00:05:46;;;;;;;44.95;19.85;;;;;;;7.37;76.62;100687.82;1631582;88;21228;-52
2021/01/02 00:08:56;;;;;;;40.23;19.92;;;;;;;7.39;76.60;100691.23;1624940;86;21232;-52
2021/01/02 00:12:36;;;;;;;48.87;21.15;;;;;;;7.39;76.75;100693.46;1693270;85;21266;-52
2021/01/02 00:16:14;;;;;;;46.73;23.60;;;;;;;7.42;76.75;100701.34;1661863;86;21225;-52
2021/01/02 00:19:57;;;;;;;43.00;20.62;;;;;;;7.44;76.70;100710.72;1686003;84;21267;-53
2021/01/02 00:23:06;;;;;;;46.90;20.37;;;;;;;7.44;76.72;100715.67;1631685;88;21311;-53
2021/01/02 00:26:27;;;;;;;41.08;19.23;;;;;;;7.46;76.63;100713.67;1656468;86;21578;-53
2021/01/02 00:29:33;;;;;;;44.15;20.50;;;;;;;7.47;76.62;100725.40;1671780;84;21212;-52
2021/01/02 00:33:11;;;;;;;47.55;23.32;;;;;;;7.46;76.62;100714.16;1685518;84;21248;-53
2021/01/02 00:36:49;;;;;;;49.63;22.35;;;;;;;7.47;76.63;100715.37;1660062;85;21257;-53
2021/01/02 00:40:25;;;;;;;50.28;23.85;;;;;;;7.48;76.60;100716.23;1684035;85;21291;-51
2021/01/02 00:43:31;;;;;;;62.67;27.17;;;;;;;7.48;76.68;100719.80;1659840;85;21269;-53
2021/01/02 00:46:37;;;;;;;63.42;26.10;;;;;;;7.52;76.78;100729.91;1684692;83;21325;-53
2021/01/02 00:49:43;;;;;;;56.42;22.67;;;;;;;7.54;76.75;100730.62;1685712;85;21344;-52
2021/01/02 00:53:04;;;;;;;48.15;22.42;;;;;;;7.56;76.74;100728.63;1685692;85;21234;-53
2021/01/02 00:56:28;;;;;;;45.05;20.60;;;;;;;7.58;76.72;100744.29;1692221;85;21380;-53
2021/01/02 00:59:45;;;;;;;45.12;20.32;;;;;;;7.59;76.68;100748.22;1692122;85;21900;-52
2021/01/02 01:03:10;;;;;;;47.48;20.08;;;;;;;7.61;76.62;100758.48;1691972;85;21275;-52
2021/01/02 01:06:14;;;;;;;;;;;;;;;7.61;76.55;100764.45;1694684;85;21372;-53
2021/01/02 01:09:20;;;;;;;;;;;;;;;7.59;76.51;100769.19;1671539;84;20214;-52
2021/01/02 01:12:26;;;;;;;40.50;19.77;;;;;;;7.55;76.65;100775.42;1685807;85;20289;-53
2021/01/02 01:15:34;;;;;;;42.25;19.48;;;;;;;7.51;76.85;100778.59;1685829;85;21375;-53
2021/01/02 01:19:09;;;;;;;39.88;20.57;;;;;;;7.48;76.91;100785.17;1685836;85;21352;-53
2021/01/02 01:22:14;;;;;;;36.05;19.05;;;;;;;7.49;77.03;100780.59;1692215;85;21376;-52
2021/01/02 01:25:24;;;;;;;39.03;20.57;;;;;;;7.44;76.96;100783.77;1692731;85;21197;-53
2021/01/02 01:28:33;;;;;;;41.75;21.95;;;;;;;7.40;77.04;100789.66;1692774;85;21399;-52
2021/01/02 01:31:52;;;;;;;38.70;19.70;;;;;;;7.40;77.08;100793.73;1692747;85;21718;-53
2021/01/02 01:35:04;;;;;;;43.78;22.35;;;;;;;7.36;77.14;100794.52;1692625;85;21205;-52
2021/01/02 01:38:09;;;;;;;38.48;20.97;;;;;;;7.37;77.23;100800.31;1685501;82;21195;-52
2021/01/02 01:41:21;;;;;;;38.67;21.23;;;;;;;7.37;77.13;100807.65;1682547;85;21206;-52
2021/01/02 01:45:07;;;;;;;38.08;20.85;;;;;;;7.33;77.09;100801.62;1682693;85;21322;-54
2021/01/02 01:48:28;;;;;;;36.00;20.55;;;;;;;7.31;77.02;100808.20;1682315;85;21229;-54
2021/01/02 01:51:59;;;;;;;35.15;19.42;;;;;;;7.27;76.91;100811.74;1682302;85;21351;-54
2021/01/02 01:55:11;;;;;;;31.37;18.20;;;;;;;7.23;76.77;100812.18;1680443;85;21329;-53
2021/01/02 01:58:20;;;;;;;29.75;18.10;;;;;;;7.21;76.57;100827.30;1682453;85;21441;-53
2021/01/02 02:01:31;;;;;;;27.82;16.42;;;;;;;7.17;76.35;100828.57;1668978;85;21584;-53
2021/01/02 02:05:13;;;;;;;25.70;15.80;;;;;;;7.13;75.95;100833.96;1681984;85;21305;-52
2021/01/02 02:08:18;;;;;;;21.48;14.40;;;;;;;7.04;75.63;100844.32;1682240;85;21365;-53
2021/01/02 02:11:32;;;;;;;25.60;16.27;;;;;;;6.91;75.15;100846.45;1682322;85;22136;-54
2021/01/02 02:14:54;;;;;;;17.98;13.00;;;;;;;6.78;74.95;100855.41;1682587;85;21257;-53
2021/01/02 02:18:14;;;;;;;16.55;11.73;;;;;;;6.64;74.88;100865.33;1682749;85;21396;-53
2021/01/02 02:21:21;;;;;;;15.15;11.40;;;;;;;6.52;74.49;100869.13;1682434;85;21491;-54
2021/01/02 02:24:27;;;;;;;13.58;10.80;;;;;;;6.42;74.12;100875.55;1682479;85;21283;-53
2021/01/02 02:27:36;;;;;;;12.43;10.38;;;;;;;6.33;74.11;100888.09;1668799;85;21186;-53
2021/01/02 02:30:42;;;;;;;13.03;9.65;;;;;;;6.30;74.12;100886.14;1682255;85;21308;-54
2021/01/02 02:33:48;;;;;;;11.57;9.63;;;;;;;6.30;73.90;100901.09;1677984;85;21308;-54
2021/01/02 02:36:53;;;;;;;11.20;9.55;;;;;;;6.25;73.78;100903.39;1682145;85;21178;-53
2021/01/02 02:39:58;;;;;;;13.28;10.28;;;;;;;6.26;73.86;100910.05;1692122;85;21956;-53
2021/01/02 02:43:09;;;;;;;13.65;9.95;;;;;;;6.31;73.79;100915.91;1692576;85;21326;-54
2021/01/02 02:46:20;;;;;;;12.70;9.88;;;;;;;6.37;73.75;100919.47;1692851;85;21217;-52
2021/01/02 02:49:32;;;;;;;11.57;9.28;;;;;;;6.45;73.73;100929.17;1685790;85;22085;-53
2021/01/02 02:52:47;;;;;;;13.10;9.93;;;;;;;6.55;73.64;100931.41;1691580;85;21931;-52
2021/01/02 02:55:53;;;;;;;11.63;9.75;;;;;;;6.64;73.51;100938.77;1692910;85;21363;-52
2021/01/02 02:58:58;;;;;;;15.48;11.53;;;;;;;6.71;73.38;100946.72;1685816;85;21467;-53
2021/01/02 03:02:04;;;;;;;20.70;12.98;;;;;;;6.77;73.28;100949.41;1685721;85;22040;-53
2021/01/02 03:05:09;;;;;;;17.92;13.03;;;;;;;6.79;73.06;100953.70;1685743;85;21388;-53
2021/01/02 03:08:15;;;;;;;14.55;11.83;;;;;;;6.80;72.87;100965.45;1685817;85;21396;-53
2021/01/02 03:11:20;;;;;;;17.05;11.80;;;;;;;6.80;72.70;100963.58;1685860;85;21278;-53
2021/01/02 03:14:25;;;;;;;15.00;11.33;;;;;;;6.81;72.69;100968.04;1689717;84;21383;-53
2021/01/02 03:17:30;;;;;;;12.68;10.85;;;;;;;6.80;72.33;100970.38;1692567;85;21226;-53
2021/01/02 03:20:35;;;;;;;15.53;11.70;;;;;;;6.77;72.28;100980.18;1692631;85;21363;-52
2021/01/02 03:23:53;;;;;;;13.53;11.30;;;;;;;6.76;72.11;100985.76;1692658;85;22008;-52
2021/01/02 03:27:00;;;;;;;12.78;9.93;;;;;;;6.76;72.02;100987.12;1692570;85;21356;-53
2021/01/02 03:30:06;;;;;;;11.25;9.70;;;;;;;6.75;71.78;100997.66;1711175;83;21228;-52
2021/01/02 03:33:11;;;;;;;10.55;9.38;;;;;;;6.70;71.38;101003.51;1690978;84;21265;-52
2021/01/02 03:36:16;;;;;;;13.20;9.60;;;;;;;6.64;71.32;101003.19;1715827;83;21406;-53
2021/01/02 03:39:22;;;;;;;13.05;10.43;;;;;;;6.59;71.39;101007.68;1662795;86;21303;-53
2021/01/02 03:42:28;;;;;;;13.38;10.43;;;;;;;6.57;71.51;101006.94;1687640;84;21276;-53
2021/01/02 03:45:33;;;;;;;14.20;11.53;;;;;;;6.60;71.58;101008.52;1718890;82;21212;-53
2021/01/02 03:48:39;;;;;;;17.45;13.32;;;;;;;6.63;71.69;101013.72;1687681;85;21261;-53
2021/01/02 03:51:44;;;;;;;19.25;13.45;;;;;;;6.65;71.73;101015.29;1725806;83;21733;-53
2021/01/02 03:54:48;;;;;;;17.00;12.55;;;;;;;6.63;71.65;101018.64;1725929;83;21362;-53
2021/01/02 03:57:53;;;;;;;16.48;12.40;;;;;;;6.63;71.68;101021.36;1725405;83;21235;-52
2021/01/02 04:01:01;;;;;;;15.25;11.55;;;;;;;6.61;71.70;101024.70;1726165;83;21457;-53
2021/01/02 04:04:05;;;;;;;14.45;11.40;;;;;;;6.61;71.72;101034.22;1725922;83;21247;-53
2021/01/02 04:07:05;;;;;;;15.45;12.78;;;;;;;6.61;71.74;101031.50;1726231;83;21355;-53
2021/01/02 04:10:14;;;;;;;15.98;12.80;;;;;;;6.63;71.70;101039.56;1725809;83;21721;-53
2021/01/02 04:13:19;;;;;;;15.48;11.57;;;;;;;6.64;71.64;101042.62;1726223;83;21290;-53
2021/01/02 04:16:24;;;;;;;18.55;12.60;;;;;;;6.65;71.51;101056.09;1711169;83;21328;-53
2021/01/02 04:19:36;;;;;;;16.37;12.43;;;;;;;6.63;71.45;101049.92;1726423;83;21476;-53
2021/01/02 04:22:38;;;;;;;14.80;12.05;;;;;;;6.61;71.35;101062.78;1726352;83;21434;-52
2021/01/02 04:25:45;;;;;;;17.23;11.55;;;;;;;6.61;71.23;101064.14;1726357;83;21378;-52
2021/01/02 04:28:50;;;;;;;14.45;11.22;;;;;;;6.56;71.09;101073.23;1726082;83;21402;-52
2021/01/02 04:31:58;;;;;;;12.68;10.48;;;;;;;6.49;70.94;101079.31;1711101;83;21240;-53
2021/01/02 04:35:04;;;;;;;12.95;10.68;;;;;;;6.44;70.96;101087.87;1726321;83;21362;-53
2021/01/02 04:38:10;;;;;;;13.48;9.85;;;;;;;6.40;70.93;101090.51;1726128;83;21279;-53
2021/01/02 04:41:15;;;;;;;10.95;9.18;;;;;;;6.36;70.77;101093.63;1717228;83;21248;-53
2021/01/02 04:44:20;;;;;;;11.83;8.93;;;;;;;6.30;70.74;101109.08;1711213;83;21288;-53
2021/01/02 04:47:26;;;;;;;8.95;7.85;;;;;;;6.26;70.79;101113.94;1695252;84;21213;-53
2021/01/02 04:50:32;;;;;;;9.03;7.80;;;;;;;6.26;70.79;101123.45;1710851;83;21276;-53
2021/01/02 04:53:37;;;;;;;8.28;7.30;;;;;;;6.28;70.79;101126.88;1710740;83;21248;-52
2021/01/02 04:56:44;;;;;;;8.65;7.30;;;;;;;6.33;70.73;101139.59;1711742;83;21414;-53
2021/01/02 04:59:55;;;;;;;18.40;11.55;;;;;;;6.33;70.48;101147.75;1710980;83;21220;-53
2021/01/02 05:03:01;;;;;;;15.93;10.90;;;;;;;6.32;70.49;101158.76;1711303;83;21268;-54
2021/01/02 05:06:06;;;;;;;11.80;8.28;;;;;;;6.32;70.36;101156.05;1710852;83;21284;-54
2021/01/02 05:09:14;;;;;;;9.75;7.00;;;;;;;6.31;70.25;101161.12;1711539;83;21371;-54
2021/01/02 05:12:36;;;;;;;8.80;6.55;;;;;;;6.31;70.19;101171.48;1710626;83;21244;-54
2021/01/02 05:15:42;;;;;;;6.20;5.40;;;;;;;6.31;70.14;101174.20;1711496;83;21221;-54
2021/01/02 05:19:07;;;;;;;8.70;6.83;;;;;;;6.33;70.03;101180.90;1711408;83;21367;-54
2021/01/02 05:22:14;;;;;;;7.40;5.65;;;;;;;6.36;70.02;101186.08;1711524;83;21347;-53
2021/01/02 05:25:23;;;;;;;7.83;5.92;;;;;;;6.38;69.83;101192.22;1710238;83;21233;-54
2021/01/02 05:28:29;;;;;;;7.40;5.30;;;;;;;6.38;69.75;101193.58;1710617;83;21287;-53
2021/01/02 05:31:35;;;;;;;6.37;4.92;;;;;;;6.37;69.66;101192.75;1711159;83;21240;-53
2021/01/02 05:34:40;;;;;;;5.78;5.10;;;;;;;6.36;69.52;101196.44;1710976;83;21255;-53
2021/01/02 05:37:45;;;;;;;11.18;7.67;;;;;;;6.34;69.43;101193.48;1710600;83;21871;-53
2021/01/02 05:41:02;;;;;;;10.00;7.65;;;;;;;6.33;69.43;101202.13;1710965;83;21209;-53
2021/01/02 05:44:20;;;;;;;8.75;6.35;;;;;;;6.32;69.24;101202.27;1716485;83;21198;-52
2021/01/02 05:47:28;;;;;;;8.10;6.05;;;;;;;6.28;69.19;101210.33;1686073;85;21228;-52
2021/01/02 05:50:34;;;;;;;8.55;6.10;;;;;;;6.25;69.22;101214.15;1721736;83;21368;-52
2021/01/02 05:53:43;;;;;;;7.58;5.78;;;;;;;6.23;69.20;101218.88;1721391;83;21493;-52
2021/01/02 05:56:53;;;;;;;7.20;5.30;;;;;;;6.23;69.25;101224.31;1721296;83;21233;-52
2021/01/02 06:00:02;;;;;;;7.47;5.37;;;;;;;6.23;69.27;101228.39;1721197;83;21233;-53
2021/01/02 06:03:07;;;;;;;7.25;5.72;;;;;;;6.22;69.13;101230.72;1720195;83;21951;-53
2021/01/02 06:06:17;;;;;;;8.30;6.60;;;;;;;6.21;69.13;101234.92;1721272;83;21348;-54
2021/01/02 06:09:23;;;;;;;17.98;14.13;;;;;;;6.21;69.11;101252.11;1719538;83;21391;-54
2021/01/02 06:12:41;;;;;;;16.62;12.23;;;;;;;6.20;69.12;101255.80;1721610;83;21210;-53
2021/01/02 06:15:46;;;;;;;7.85;6.22;;;;;;;6.19;68.83;101252.72;1721664;83;21328;-53
2021/01/02 06:18:54;;;;;;;6.62;5.15;;;;;;;6.16;68.54;101267.05;1721330;83;21767;-53
2021/01/02 06:22:00;;;;;;;10.23;6.35;;;;;;;6.11;68.54;101274.23;1721560;82;21463;-53
2021/01/02 06:25:06;;;;;;;8.88;6.92;;;;;;;6.10;68.60;101276.59;1721700;83;21277;-54
2021/01/02 06:28:12;;;;;;;10.90;8.40;;;;;;;6.09;68.60;101290.67;1721693;83;21312;-53
2021/01/02 06:31:22;;;;;;;10.60;8.50;;;;;;;6.07;68.63;101297.23;1721614;83;21940;-54
2021/01/02 06:34:28;;;;;;;8.08;6.08;;;;;;;6.05;68.64;101297.36;1721544;83;21853;-53
2021/01/02 06:37:33;;;;;;;6.45;5.37;;;;;;;6.05;68.62;101306.88;1721593;83;21364;-53
2021/01/02 06:40:45;;;;;;;6.45;5.20;;;;;;;6.00;68.21;101316.38;1721658;83;21225;-52
2021/01/02 06:43:51;;;;;;;7.78;6.03;;;;;;;5.96;68.27;101328.49;1718305;81;21285;-53
2021/01/02 06:46:57;;;;;;;9.50;6.15;;;;;;;5.97;68.25;101327.02;1716414;83;21354;-53
2021/01/02 06:50:02;;;;;;;7.65;5.70;;;;;;;5.97;67.96;101324.78;1716748;83;21695;-53
2021/01/02 06:53:27;;;;;;;6.70;5.97;;;;;;;5.97;68.03;101339.73;1716432;83;21366;-53
2021/01/02 06:56:38;;;;;;;8.48;6.53;;;;;;;6.03;68.09;101347.38;1716973;83;21252;-53
2021/01/02 06:59:44;;;;;;;10.35;6.85;;;;;;;6.07;67.95;101350.23;1716625;83;21423;-53
2021/01/02 07:02:50;;;;;;;7.15;6.05;;;;;;;6.12;67.98;101359.37;1716575;83;21900;-53
2021/01/02 07:05:56;;;;;;;6.62;5.87;;;;;;;6.13;68.02;101353.81;1716694;83;21228;-53
2021/01/02 07:09:15;;;;;;;7.75;6.70;;;;;;;6.16;68.03;101366.28;1716173;83;21374;-53
2021/01/02 07:12:21;;;;;;;9.20;7.70;;;;;;;6.20;68.06;101380.02;1716611;83;21205;-53
2021/01/02 07:15:27;;;;;;;8.65;7.28;;;;;;;6.20;67.82;101385.45;1716430;83;21237;-53
2021/01/02 07:18:32;;;;;;;11.90;9.00;;;;;;;6.19;67.42;101391.85;1681137;83;21307;-52
2021/01/02 07:21:46;;;;;;;10.63;8.40;;;;;;;6.11;66.51;101396.55;1716239;83;21332;-54
2021/01/02 07:25:14;;;;;;;11.40;7.95;;;;;;;6.04;66.10;101402.13;1716290;83;21406;-52
2021/01/02 07:28:19;;;;;;;10.35;8.28;;;;;;;6.01;65.82;101413.22;1716540;83;21229;-53
2021/01/02 07:31:25;;;;;;;9.80;8.05;;;;;;;6.01;65.83;101411.86;1716519;83;21229;-53
2021/01/02 07:34:31;;;;;;;12.80;9.68;;;;;;;6.05;66.04;101412.87;1716341;83;21386;-53
2021/01/02 07:37:41;;;;;;;14.33;9.08;;;;;;;6.11;65.76;101430.53;1715890;83;21193;-53
2021/01/02 07:40:46;;;;;;;13.08;8.85;;;;;;;6.12;65.22;101425.97;1716774;83;21293;-53
2021/01/02 07:43:51;;;;;;;12.73;10.18;;;;;;;6.12;65.00;101430.05;1713293;83;21232;-52
2021/01/02 07:46:56;;;;;;;23.65;13.03;;;;;;;6.18;65.02;101434.99;1709614;83;21232;-53
2021/01/02 07:50:17;;;;;;;25.27;14.45;;;;;;;6.28;65.00;101440.92;1710296;83;21784;-53
2021/01/02 07:53:24;;;;;;;21.35;13.03;;;;;;;6.33;65.05;101438.70;1710129;83;21245;-54
2021/01/02 07:56:43;;;;;;;14.43;9.80;;;;;;;6.42;65.15;101448.86;1710880;84;21764;-53
2021/01/02 07:59:49;;;;;;;9.80;7.83;;;;;;;6.53;65.10;101455.66;1705296;84;21205;-53
2021/01/02 08:02:57;;;;;;;11.53;9.18;;;;;;;6.62;64.38;101460.83;1710910;84;21280;-52
2021/01/02 08:06:04;;;;;;;11.08;8.20;;;;;;;6.63;63.98;101462.06;1711382;83;21244;-52
2021/01/02 08:09:11;;;;;;;13.20;9.03;;;;;;;6.65;63.77;101464.18;1710486;83;21232;-52
2021/01/02 08:12:16;;;;;;;11.30;7.65;;;;;;;6.68;63.19;101468.01;1682225;85;21229;-53
2021/01/02 08:15:23;;;;;;;10.20;7.03;;;;;;;6.68;62.92;101476.17;1683783;85;21358;-53
2021/01/02 08:18:28;;;;;;;23.18;14.30;;;;;;;6.61;62.10;101477.64;1706178;84;21272;-53
2021/01/02 08:21:34;;;;;;;28.75;19.00;;;;;;;6.60;62.23;101478.64;1711774;83;21220;-54
2021/01/02 08:24:40;;;;;;;14.63;10.18;;;;;;;6.64;62.32;101481.50;1711940;83;21240;-54
2021/01/02 08:27:46;;;;;;;12.60;9.05;;;;;;;6.64;61.78;101486.95;1697821;84;21277;-52
2021/01/02 08:30:53;;;;;;;15.35;11.63;;;;;;;6.66;61.93;101486.82;1689190;84;21252;-53
2021/01/02 08:33:59;;;;;;;12.85;10.08;;;;;;;6.67;61.82;101485.82;1700919;82;21275;-53
2021/01/02 08:37:09;;;;;;;19.07;10.48;;;;;;;6.72;61.85;101492.64;1693686;84;21357;-53
2021/01/02 08:40:19;;;;;;;14.80;10.45;;;;;;;6.79;61.63;101505.22;1709919;83;21268;-52
2021/01/02 08:43:34;;;;;;;11.48;8.93;;;;;;;6.84;61.88;101498.91;1711820;82;21280;-53
2021/01/02 08:46:40;;;;;;;12.25;8.83;;;;;;;6.90;61.54;101496.56;1682784;82;21244;-53
2021/01/02 08:49:49;;;;;;;11.03;8.98;;;;;;;6.91;61.42;101503.72;1682772;84;21251;-54
2021/01/02 08:52:54;;;;;;;14.45;9.40;;;;;;;6.92;61.48;101506.84;1702696;82;21284;-54
2021/01/02 08:56:00;;;;;;;14.00;9.58;;;;;;;6.94;61.65;101500.78;1693710;84;21208;-54
2021/01/02 08:59:05;;;;;;;12.53;7.87;;;;;;;6.97;61.51;101507.81;1710912;82;21204;-54
2021/01/02 09:02:15;;;;;;;10.60;7.70;;;;;;;6.93;61.16;101500.39;1712004;84;21211;-53
2021/01/02 09:05:23;;;;;;;9.33;7.20;;;;;;;6.90;61.07;101503.36;1713048;83;21614;-53
2021/01/02 09:08:28;;;;;;;9.70;8.20;;;;;;;6.83;60.64;101511.67;1712279;82;21247;-53
2021/01/02 09:11:35;;;;;;;10.98;7.85;;;;;;;6.76;61.06;101502.75;1686935;84;22065;-52
2021/01/02 09:14:41;;;;;;;11.78;7.40;;;;;;;6.79;61.31;101507.45;1682299;85;21442;-52
2021/01/02 09:17:57;;;;;;;10.05;7.58;;;;;;;6.82;61.47;101505.84;1682271;85;21383;-54
2021/01/02 09:21:15;;;;;;;13.18;9.33;;;;;;;6.84;61.59;101497.06;1682453;85;21347;-53
2021/01/02 09:24:30;;;;;;;11.05;8.43;;;;;;;6.93;61.76;101507.20;1682558;85;21746;-53
2021/01/02 09:27:35;;;;;;;12.80;9.95;;;;;;;7.01;61.55;101507.44;1682278;85;21327;-53
2021/01/02 09:30:41;;;;;;;8.68;6.30;;;;;;;6.99;61.48;101508.05;1682411;85;21370;-53
2021/01/02 09:33:47;;;;;;;13.75;8.95;;;;;;;6.95;61.60;101511.15;1682255;85;21386;-53
2021/01/02 09:36:58;;;;;;;11.83;6.80;;;;;;;6.88;61.96;101520.31;1682251;85;21228;-54
2021/01/02 09:40:24;;;;;;;15.83;9.48;;;;;;;6.82;62.05;101514.01;1682047;85;22208;-53
2021/01/02 09:43:28;;;;;;;9.60;6.72;;;;;;;6.76;62.12;101518.59;1682036;85;21279;-52
2021/01/02 09:46:37;;;;;;;9.18;6.62;;;;;;;6.76;62.17;101524.03;1682255;84;21363;-53
2021/01/02 09:49:42;;;;;;;8.38;5.75;;;;;;;6.80;62.02;101521.42;1682178;85;21746;-53
2021/01/02 09:52:47;;;;;;;7.00;5.12;;;;;;;6.81;61.91;101520.45;1682430;85;21378;-53
2021/01/02 09:55:53;;;;;;;7.67;6.08;;;;;;;6.82;61.83;101520.81;1682503;85;21359;-54
2021/01/02 09:58:59;;;;;;;12.43;9.18;;;;;;;6.90;61.91;101518.34;1681498;84;21256;-53
2021/01/02 10:02:04;;;;;;;8.10;5.62;;;;;;;6.97;62.10;101530.47;1682516;85;21363;-53
2021/01/02 10:05:11;;;;;;;7.83;5.53;;;;;;;7.01;62.03;101529.70;1693632;84;21244;-52
2021/01/02 10:08:16;;;;;;;7.95;5.58;;;;;;;7.05;61.95;101535.28;1711822;82;21275;-54
2021/01/02 10:11:22;;;;;;;9.05;6.00;;;;;;;7.05;61.76;101532.56;1712143;84;21240;-53
2021/01/02 10:14:27;;;;;;;9.23;5.80;;;;;;;7.06;61.74;101526.98;1712364;82;21287;-55
2021/01/02 10:17:34;;;;;;;9.15;6.83;;;;;;;7.10;61.69;101535.26;1717704;82;21374;-52
2021/01/02 10:20:40;;;;;;;14.63;10.35;;;;;;;7.11;61.74;101541.09;1712365;84;21789;-54
2021/01/02 10:23:44;;;;;;;10.55;7.50;;;;;;;7.16;61.89;101534.78;1712117;82;21259;-53
2021/01/02 10:26:52;;;;;;;12.68;8.63;;;;;;;7.19;61.48;101533.16;1712170;84;21360;-54
2021/01/02 10:30:00;;;;;;;13.22;9.13;;;;;;;7.20;61.44;101534.01;1712215;84;21233;-52
2021/01/02 10:33:05;;;;;;;8.73;6.30;;;;;;;7.26;61.64;101544.42;1711626;82;21232;-53
2021/01/02 10:36:12;;;;;;;10.08;7.50;;;;;;;7.43;61.49;101544.76;1711885;84;21244;-53
2021/01/02 10:39:16;;;;;;;11.03;7.40;;;;;;;7.61;61.19;101550.02;1711699;82;21267;-53
2021/01/02 10:42:24;;;;;;;10.53;6.58;;;;;;;7.79;61.17;101552.18;1711640;84;21765;-57
2021/01/02 10:45:29;;;;;;;11.28;7.33;;;;;;;7.93;60.61;101553.27;1712031;84;21216;-54
2021/01/02 10:48:34;;;;;;;7.62;5.42;;;;;;;7.93;60.15;101549.17;1711980;81;21271;-53
2021/01/02 10:51:40;;;;;;;12.05;8.35;;;;;;;7.89;60.04;101554.02;1711435;83;21740;-53
2021/01/02 10:54:51;;;;;;;8.38;6.03;;;;;;;7.81;60.27;101559.73;1712266;83;21264;-54
2021/01/02 10:57:56;;;;;;;8.50;6.42;;;;;;;7.76;60.32;101563.34;1711993;82;21751;-53
2021/01/02 11:01:04;;;;;;;9.93;6.80;;;;;;;7.65;60.47;101564.26;1711481;83;21785;-52
2021/01/02 11:04:08;;;;;;;11.30;8.18;;;;;;;7.47;60.54;101568.02;1711951;82;21298;-53
2021/01/02 11:07:14;;;;;;;11.57;7.95;;;;;;;7.27;61.03;101574.73;1711473;83;21668;-52
2021/01/02 11:10:19;;;;;;;17.32;10.98;;;;;;;7.20;61.46;101563.96;1710942;83;21224;-53
2021/01/02 11:13:24;;;;;;;13.78;9.60;;;;;;;7.19;61.81;101563.12;1690947;84;21757;-53
2021/01/02 11:16:41;;;;;;;14.95;10.10;;;;;;;7.28;62.08;101564.20;1715294;83;21807;-53
2021/01/02 11:19:47;;;;;;;17.92;13.25;;;;;;;7.36;61.94;101562.59;1686815;84;21213;-53
2021/01/02 11:22:52;;;;;;;19.82;13.58;;;;;;;7.42;61.98;101558.51;1690564;83;21361;-54
2021/01/02 11:25:56;;;;;;;19.57;13.72;;;;;;;7.46;61.86;101564.05;1685535;85;22302;-54
2021/01/02 11:29:01;;;;;;;20.45;13.90;;;;;;;7.52;61.80;101566.27;1687653;83;21283;-54
2021/01/02 11:32:09;;;;;;;22.10;13.93;;;;;;;7.57;61.63;101576.30;1687772;85;21788;-54
2021/01/02 11:35:15;;;;;;;21.93;13.88;;;;;;;7.57;61.44;101563.55;1673483;84;21227;-54
2021/01/02 11:38:20;;;;;;;22.87;16.30;;;;;;;7.60;61.59;101578.27;1688036;83;21385;-53
2021/01/02 11:41:26;;;;;;;29.15;17.05;;;;;;;7.69;61.53;101575.25;1688293;85;21875;-54
2021/01/02 11:44:33;;;;;;;24.02;15.00;;;;;;;7.73;61.37;101582.20;1688212;83;21378;-53
2021/01/02 11:47:39;;;;;;;21.42;14.45;;;;;;;7.76;61.38;101579.21;1688127;83;21338;-54
2021/01/02 11:50:44;;;;;;;19.45;12.95;;;;;;;7.78;60.99;101592.70;1683785;85;21337;-54
2021/01/02 11:53:51;;;;;;;20.68;13.28;;;;;;;7.75;61.03;101591.61;1685846;83;21247;-54
2021/01/02 11:56:56;;;;;;;16.80;12.37;;;;;;;7.77;61.08;101589.63;1683900;85;21283;-54
2021/01/02 12:00:02;;;;;;;18.42;13.25;;;;;;;7.76;61.12;101597.42;1699390;83;21261;-54
2021/01/02 12:03:08;;;;;;;17.23;11.63;;;;;;;7.72;61.11;101594.59;1680082;85;21205;-55
2021/01/02 12:06:13;;;;;;;22.15;14.78;;;;;;;7.64;61.30;101612.44;1664142;86;21196;-55
2021/01/02 12:09:19;;;;;;;21.65;14.70;;;;;;;7.63;61.54;101613.08;1682696;84;21295;-53
2021/01/02 12:12:25;;;;;;;14.45;10.78;;;;;;;7.66;61.70;101618.27;1682992;84;21342;-53
2021/01/02 12:15:30;;;;;;;18.92;11.80;;;;;;;7.63;61.68;101605.75;1684357;85;21772;-54
2021/01/02 12:18:35;;;;;;;16.20;11.28;;;;;;;7.61;61.87;101611.84;1692596;83;21236;-53
2021/01/02 12:21:40;;;;;;;26.30;17.40;;;;;;;7.56;61.75;101624.98;1690251;85;21656;-54
2021/01/02 12:24:46;;;;;;;26.73;15.48;;;;;;;7.46;61.93;101625.36;1711624;83;21303;-53
2021/01/02 12:27:54;;;;;;;21.68;13.50;;;;;;;7.42;62.00;101624.73;1690671;83;21714;-53
2021/01/02 12:30:59;;;;;;;17.73;12.15;;;;;;;7.39;61.87;101638.61;1710909;83;21219;-53
2021/01/02 12:34:04;;;;;;;19.67;11.93;;;;;;;7.38;61.89;101640.98;1690825;83;21336;-53
2021/01/02 12:37:12;;;;;;;16.23;10.72;;;;;;;7.43;61.91;101648.28;1711191;83;21199;-53
2021/01/02 12:40:18;;;;;;;19.65;11.93;;;;;;;7.52;61.87;101656.18;1714072;83;21251;-54
2021/01/02 12:43:23;;;;;;;19.87;12.63;;;;;;;7.61;61.56;101664.47;1692029;83;21360;-54
2021/01/02 12:46:29;;;;;;;18.10;12.90;;;;;;;7.67;61.43;101663.12;1712541;83;21244;-53
2021/01/02 12:49:37;;;;;;;19.85;12.78;;;;;;;7.72;61.48;101673.14;1690760;83;21359;-54
2021/01/02 12:52:43;;;;;;;39.48;20.77;;;;;;;7.79;61.55;101671.63;1717116;82;21851;-55
2021/01/02 12:55:50;;;;;;;25.17;13.65;;;;;;;7.82;61.61;101670.53;1719656;83;21212;-53
2021/01/02 12:58:57;;;;;;;17.45;10.93;;;;;;;7.88;61.69;101674.95;1714157;82;21235;-53
2021/01/02 13:02:02;;;;;;;15.43;10.80;;;;;;;7.82;61.65;101688.25;1712316;84;21336;-53
2021/01/02 13:05:06;;;;;;;18.67;11.55;;;;;;;7.74;61.76;101690.73;1711879;84;21320;-54
2021/01/02 13:08:10;;;;;;;13.83;10.00;;;;;;;7.64;61.75;101696.91;1663940;85;21208;-53
2021/01/02 13:11:17;;;;;;;16.57;11.18;;;;;;;7.57;61.81;101699.79;1691739;83;21319;-53
2021/01/02 13:14:25;;;;;;;14.47;10.48;;;;;;;7.50;61.97;101703.98;1692357;85;21336;-54
2021/01/02 13:17:31;;;;;;;15.32;8.80;;;;;;;7.43;62.22;101711.43;1692096;85;21336;-53
2021/01/02 13:20:38;;;;;;;14.63;9.80;;;;;;;7.37;62.55;101714.65;1691992;85;21643;-53
2021/01/02 13:23:46;;;;;;;25.57;18.77;;;;;;;7.29;62.85;101716.60;1692236;85;21364;-53
2021/01/02 13:26:59;;;;;;;18.95;15.15;;;;;;;7.24;63.09;101727.50;1691852;85;21560;-53
2021/01/02 13:30:06;;;;;;;15.65;10.78;;;;;;;7.18;63.27;101732.09;1692038;85;21789;-53
2021/01/02 13:33:12;;;;;;;15.25;9.93;;;;;;;7.10;63.36;101734.02;1691842;85;21862;-53
2021/01/02 13:36:16;;;;;;;14.47;10.30;;;;;;;7.05;63.55;101739.00;1691834;85;21380;-53
2021/01/02 13:39:24;;;;;;;27.15;19.27;;;;;;;7.00;63.71;101737.12;1718548;82;21365;-53
2021/01/02 13:42:32;;;;;;;47.78;33.70;;;;;;;6.94;63.94;101740.33;1719212;82;21204;-53
2021/01/02 13:45:37;;;;;;;66.62;42.08;;;;;;;6.89;64.14;101747.98;1718960;83;21200;-53
2021/01/02 13:48:43;;;;;;;80.07;49.13;;;;;;;6.80;64.38;101748.67;1718858;82;21235;-53
2021/01/02 13:51:49;;;;;;;56.75;37.80;;;;;;;6.72;64.65;101751.14;1718882;81;21567;-53
2021/01/02 13:54:57;;;;;;;52.03;35.35;;;;;;;6.65;64.83;101752.59;1685705;83;21212;-54
2021/01/02 13:58:03;;;;;;;60.73;41.08;;;;;;;6.58;65.08;101758.63;1717155;83;21390;-54
2021/01/02 14:01:09;;;;;;;74.70;46.90;;;;;;;6.50;65.34;101768.70;1717394;83;21213;-53
2021/01/02 14:04:14;;;;;;;142.13;89.75;;;;;;;6.43;65.55;101769.28;1717355;83;21375;-53
2021/01/02 14:07:19;;;;;;;172.17;107.00;;;;;;;6.37;65.77;101773.36;1717774;83;22138;-53
2021/01/02 14:10:26;;;;;;;113.42;66.40;;;;;;;6.33;65.99;101772.34;1718332;83;21434;-54
2021/01/02 14:13:32;;;;;;;110.88;70.22;;;;;;;6.27;66.10;101768.70;1718841;83;21386;-54
2021/01/02 14:16:37;;;;;;;110.80;70.20;;;;;;;6.17;66.15;101769.88;1718888;82;21421;-54
2021/01/02 14:19:46;;;;;;;53.40;37.67;;;;;;;6.02;66.22;101770.52;1718506;83;21465;-54
2021/01/02 14:22:52;;;;;;;42.50;29.48;;;;;;;5.90;66.72;101775.98;1718435;83;21375;-53
2021/01/02 14:25:58;;;;;;;80.10;42.33;;;;;;;5.81;67.15;101780.70;1718575;83;21292;-53
2021/01/02 14:29:02;;;;;;;115.77;57.75;;;;;;;5.76;67.37;101786.95;1717921;83;21240;-54
2021/01/02 14:32:08;;;;;;;124.62;61.73;;;;;;;5.72;67.50;101793.61;1719531;83;21370;-54
2021/01/02 14:35:14;;;;;;;72.45;37.03;;;;;;;5.65;67.55;101795.02;1718999;83;21374;-54